SBBE/BEL METAR and TAF weather

Enter ICAO airport designator
Station Type Date Time Source
SBBE METAR 2020/07/04 01:00 UTC NOAA

SBBE 040100Z 07006KT 9999 VCTS SCT023 FEW036CB BKN100 26/24 Q1012 RERA


Station Type Date Time Source
SBBE Decoded METAR 2020/07/04 01:00 UTC NOAA

Belem Aeroporto , Brazil (SBBE) 01-23S 048-29W 16M
Jul 03, 2020 - 09:00 PM EDT / 2020.07.04 0100 UTC
Wind: from the ENE (070 degrees) at 7 MPH (6 KT):0
Visibility: greater than 7 mile(s):0
Sky conditions: mostly cloudy
Weather: thunder in the vicinity; Cumulonimbus clouds observed
Temperature: 78 F (26 C)
Dew Point: 75 F (24 C)
Relative Humidity: 88%
Pressure (altimeter): 29.88 in. Hg (1012 hPa)
ob: SBBE 040100Z 07006KT 9999 VCTS SCT023 FEW036CB BKN100 26/24 Q1012 RERA
cycle: 1

Station Type Date Time Source
SBBE TAF 2020/07/04 00:00 UTC NOAA

TAF SBBE 032100Z 0400/0424 08008KT 8000 SCT020 TN24/0407Z TX31/0416Z
BECMG 0414/0415 SCT020 FEW030TCU PROB40 0419/0421 TS BKN015 FEW030CB
RMK PEU

Example: see airport list